sensor_id;sensor_type;location;lat;lon;timestamp;temperature;humidity
3281;DHT22;1652;51.31805600;6.20194400;2023-11-19T00:00:09;12.40;99.90
3281;DHT22;1652;51.31805600;6.20194400;2023-11-19T00:02:40;12.30;99.90
3281;DHT22;1652;51.31805600;6.20194400;2023-11-19T00:05:09;12.30;99.90
3281;DHT22;1652;51.31805600;6.20194400;2023-11-19T00:07:39;12.40;99.90
3281;DHT22;1652;51.31805600;6.20194400;2023-11-19T00:10:11;12.40;99.90
3281;DHT22;1652;51.31805600;6.20194400;2023-11-19T00:12:43;12.30;99.90
3281;DHT22;1652;51.31805600;6.20194400;2023-11-19T00:15:11;12.40;99.90
3281;DHT22;1652;51.31805600;6.20194400;2023-11-19T00:17:42;12.40;99.90
3281;DHT22;1652;51.31805600;6.20194400;2023-11-19T00:20:19;12.40;99.90
3281;DHT22;1652;51.31805600;6.20194400;2023-11-19T00:22:48;12.40;99.90
3281;DHT22;1652;51.31805600;6.20194400;2023-11-19T00:25:19;12.40;99.90
3281;DHT22;1652;51.31805600;6.20194400;2023-11-19T00:27:47;12.40;99.90
3281;DHT22;1652;51.31805600;6.20194400;2023-11-19T00:30:14;12.50;99.90
3281;DHT22;1652;51.31805600;6.20194400;2023-11-19T00:32:42;12.50;99.90
3281;DHT22;1652;51.31805600;6.20194400;2023-11-19T00:35:09;12.50;99.90
3281;DHT22;1652;51.31805600;6.20194400;2023-11-19T00:37:42;12.60;99.90
3281;DHT22;1652;51.31805600;6.20194400;2023-11-19T00:40:16;12.50;99.90
3281;DHT22;1652;51.31805600;6.20194400;2023-11-19T00:42:45;12.50;99.90
3281;DHT22;1652;51.31805600;6.20194400;2023-11-19T00:45:12;12.50;99.90
3281;DHT22;1652;51.31805600;6.20194400;2023-11-19T00:47:40;12.50;99.90
3281;DHT22;1652;51.31805600;6.20194400;2023-11-19T00:50:08;12.50;99.90
3281;DHT22;1652;51.31805600;6.20194400;2023-11-19T00:52:38;12.50;99.90
3281;DHT22;1652;51.31805600;6.20194400;2023-11-19T00:55:06;12.50;99.90
3281;DHT22;1652;51.31805600;6.20194400;2023-11-19T00:57:34;12.50;99.90
3281;DHT22;1652;51.31805600;6.20194400;2023-11-19T01:00:03;12.50;99.90
3281;DHT22;1652;51.31805600;6.20194400;2023-11-19T01:02:36;12.50;99.90
3281;DHT22;1652;51.31805600;6.20194400;2023-11-19T01:05:03;12.50;99.90
3281;DHT22;1652;51.31805600;6.20194400;2023-11-19T01:07:30;12.50;99.90
3281;DHT22;1652;51.31805600;6.20194400;2023-11-19T01:09:57;12.50;99.90
3281;DHT22;1652;51.31805600;6.20194400;2023-11-19T01:12:24;12.60;99.90
3281;DHT22;1652;51.31805600;6.20194400;2023-11-19T01:14:52;12.50;99.90
3281;DHT22;1652;51.31805600;6.20194400;2023-11-19T01:17:19;12.50;99.90
3281;DHT22;1652;51.31805600;6.20194400;2023-11-19T01:19:46;12.50;99.90
3281;DHT22;1652;51.31805600;6.20194400;2023-11-19T01:22:12;12.60;99.90
3281;DHT22;1652;51.31805600;6.20194400;2023-11-19T01:24:39;12.60;99.90
3281;DHT22;1652;51.31805600;6.20194400;2023-11-19T01:27:06;12.60;99.90
3281;DHT22;1652;51.31805600;6.20194400;2023-11-19T01:29:33;12.60;99.90
3281;DHT22;1652;51.31805600;6.20194400;2023-11-19T01:32:00;12.70;99.90
3281;DHT22;1652;51.31805600;6.20194400;2023-11-19T01:34:27;12.60;99.90
3281;DHT22;1652;51.31805600;6.20194400;2023-11-19T01:36:55;12.60;99.90
3281;DHT22;1652;51.31805600;6.20194400;2023-11-19T01:39:22;12.60;99.90
3281;DHT22;1652;51.31805600;6.20194400;2023-11-19T01:41:49;12.60;99.90
3281;DHT22;1652;51.31805600;6.20194400;2023-11-19T01:44:16;12.60;99.90
3281;DHT22;1652;51.31805600;6.20194400;2023-11-19T01:46:44;12.60;99.90
3281;DHT22;1652;51.31805600;6.20194400;2023-11-19T01:49:15;12.60;99.90
3281;DHT22;1652;51.31805600;6.20194400;2023-11-19T01:51:43;12.60;99.90
3281;DHT22;1652;51.31805600;6.20194400;2023-11-19T01:54:12;12.60;99.90
3281;DHT22;1652;51.31805600;6.20194400;2023-11-19T01:56:40;12.70;99.90
3281;DHT22;1652;51.31805600;6.20194400;2023-11-19T01:59:09;12.70;99.90
3281;DHT22;1652;51.31805600;6.20194400;2023-11-19T02:01:36;12.70;99.90
3281;DHT22;1652;51.31805600;6.20194400;2023-11-19T02:04:08;12.70;99.90
3281;DHT22;1652;51.31805600;6.20194400;2023-11-19T02:06:38;12.60;99.90
3281;DHT22;1652;51.31805600;6.20194400;2023-11-19T02:09:08;12.70;99.90
3281;DHT22;1652;51.31805600;6.20194400;2023-11-19T02:11:35;12.70;99.90
3281;DHT22;1652;51.31805600;6.20194400;2023-11-19T02:14:02;12.60;99.90
3281;DHT22;1652;51.31805600;6.20194400;2023-11-19T02:16:32;12.60;99.90
3281;DHT22;1652;51.31805600;6.20194400;2023-11-19T02:18:59;12.60;99.90
3281;DHT22;1652;51.31805600;6.20194400;2023-11-19T02:21:26;12.60;99.90
3281;DHT22;1652;51.31805600;6.20194400;2023-11-19T02:23:53;12.50;99.90
3281;DHT22;1652;51.31805600;6.20194400;2023-11-19T02:26:27;12.50;99.90
3281;DHT22;1652;51.31805600;6.20194400;2023-11-19T02:28:55;12.50;99.90
3281;DHT22;1652;51.31805600;6.20194400;2023-11-19T02:31:22;12.60;99.90
3281;DHT22;1652;51.31805600;6.20194400;2023-11-19T02:33:49;12.60;99.90
3281;DHT22;1652;51.31805600;6.20194400;2023-11-19T02:36:16;12.60;99.90
3281;DHT22;1652;51.31805600;6.20194400;2023-11-19T02:38:43;12.60;99.90
3281;DHT22;1652;51.31805600;6.20194400;2023-11-19T02:41:10;12.70;99.90
3281;DHT22;1652;51.31805600;6.20194400;2023-11-19T02:43:37;12.70;99.90
3281;DHT22;1652;51.31805600;6.20194400;2023-11-19T02:46:05;12.60;99.90
3281;DHT22;1652;51.31805600;6.20194400;2023-11-19T02:48:38;12.60;99.90
3281;DHT22;1652;51.31805600;6.20194400;2023-11-19T02:51:06;12.60;99.90
3281;DHT22;1652;51.31805600;6.20194400;2023-11-19T02:53:37;12.50;99.90
3281;DHT22;1652;51.31805600;6.20194400;2023-11-19T02:56:04;12.40;99.90
3281;DHT22;1652;51.31805600;6.20194400;2023-11-19T02:59:07;12.40;99.90
3281;DHT22;1652;51.31805600;6.20194400;2023-11-19T03:01:42;12.30;99.90
3281;DHT22;1652;51.31805600;6.20194400;2023-11-19T03:04:10;12.40;99.90
3281;DHT22;1652;51.31805600;6.20194400;2023-11-19T03:06:39;12.40;99.90
3281;DHT22;1652;51.31805600;6.20194400;2023-11-19T03:09:06;12.50;99.90
3281;DHT22;1652;51.31805600;6.20194400;2023-11-19T03:11:37;12.40;99.90
3281;DHT22;1652;51.31805600;6.20194400;2023-11-19T03:14:04;12.40;99.90
3281;DHT22;1652;51.31805600;6.20194400;2023-11-19T03:16:31;12.30;99.90
3281;DHT22;1652;51.31805600;6.20194400;2023-11-19T03:18:59;12.40;99.90
3281;DHT22;1652;51.31805600;6.20194400;2023-11-19T03:21:30;12.30;99.90
3281;DHT22;1652;51.31805600;6.20194400;2023-11-19T03:23:58;12.30;99.90
3281;DHT22;1652;51.31805600;6.20194400;2023-11-19T03:26:28;12.30;99.90
3281;DHT22;1652;51.31805600;6.20194400;2023-11-19T03:28:55;12.30;99.90
3281;DHT22;1652;51.31805600;6.20194400;2023-11-19T03:31:23;12.20;99.90
3281;DHT22;1652;51.31805600;6.20194400;2023-11-19T03:33:51;12.20;99.90
3281;DHT22;1652;51.31805600;6.20194400;2023-11-19T03:36:20;12.10;99.90
3281;DHT22;1652;51.31805600;6.20194400;2023-11-19T03:38:47;12.00;99.90
3281;DHT22;1652;51.31805600;6.20194400;2023-11-19T03:41:14;12.10;99.90
3281;DHT22;1652;51.31805600;6.20194400;2023-11-19T03:43:41;12.00;99.90
3281;DHT22;1652;51.31805600;6.20194400;2023-11-19T03:46:18;11.90;99.90
3281;DHT22;1652;51.31805600;6.20194400;2023-11-19T03:48:47;11.90;99.90
3281;DHT22;1652;51.31805600;6.20194400;2023-11-19T03:51:14;11.90;99.90
3281;DHT22;1652;51.31805600;6.20194400;2023-11-19T03:53:45;12.00;99.90
3281;DHT22;1652;51.31805600;6.20194400;2023-11-19T03:56:12;12.00;99.90
3281;DHT22;1652;51.31805600;6.20194400;2023-11-19T03:58:40;12.00;99.90
3281;DHT22;1652;51.31805600;6.20194400;2023-11-19T04:01:11;11.90;99.90
3281;DHT22;1652;51.31805600;6.20194400;2023-11-19T04:03:39;11.90;99.90
3281;DHT22;1652;51.31805600;6.20194400;2023-11-19T04:06:16;11.90;99.90
3281;DHT22;1652;51.31805600;6.20194400;2023-11-19T04:08:43;11.80;99.90
3281;DHT22;1652;51.31805600;6.20194400;2023-11-19T04:11:11;11.80;99.90
3281;DHT22;1652;51.31805600;6.20194400;2023-11-19T04:13:38;11.80;99.90
3281;DHT22;1652;51.31805600;6.20194400;2023-11-19T04:16:05;11.80;99.90
3281;DHT22;1652;51.31805600;6.20194400;2023-11-19T04:18:32;11.80;99.90
3281;DHT22;1652;51.31805600;6.20194400;2023-11-19T04:20:59;11.80;99.90
3281;DHT22;1652;51.31805600;6.20194400;2023-11-19T04:23:26;11.80;99.90
3281;DHT22;1652;51.31805600;6.20194400;2023-11-19T04:25:53;11.90;99.90
3281;DHT22;1652;51.31805600;6.20194400;2023-11-19T04:28:20;11.80;99.90
3281;DHT22;1652;51.31805600;6.20194400;2023-11-19T04:30:47;11.80;99.90
3281;DHT22;1652;51.31805600;6.20194400;2023-11-19T04:33:14;11.70;99.90
3281;DHT22;1652;51.31805600;6.20194400;2023-11-19T04:35:41;11.70;99.90
3281;DHT22;1652;51.31805600;6.20194400;2023-11-19T04:38:08;11.70;99.90
3281;DHT22;1652;51.31805600;6.20194400;2023-11-19T04:40:35;11.70;99.90
3281;DHT22;1652;51.31805600;6.20194400;2023-11-19T04:43:02;11.80;99.90
3281;DHT22;1652;51.31805600;6.20194400;2023-11-19T04:45:29;11.70;99.90
3281;DHT22;1652;51.31805600;6.20194400;2023-11-19T04:47:56;11.70;99.90
3281;DHT22;1652;51.31805600;6.20194400;2023-11-19T04:50:23;11.70;99.90
3281;DHT22;1652;51.31805600;6.20194400;2023-11-19T04:52:50;11.80;99.90
3281;DHT22;1652;51.31805600;6.20194400;2023-11-19T04:55:17;11.90;99.90
3281;DHT22;1652;51.31805600;6.20194400;2023-11-19T04:57:44;11.90;99.90
3281;DHT22;1652;51.31805600;6.20194400;2023-11-19T05:00:12;11.90;99.90
3281;DHT22;1652;51.31805600;6.20194400;2023-11-19T05:02:43;11.80;99.90
3281;DHT22;1652;51.31805600;6.20194400;2023-11-19T05:05:10;11.80;99.90
3281;DHT22;1652;51.31805600;6.20194400;2023-11-19T05:07:37;11.80;99.90
3281;DHT22;1652;51.31805600;6.20194400;2023-11-19T05:10:05;11.90;99.90
3281;DHT22;1652;51.31805600;6.20194400;2023-11-19T05:12:32;11.90;99.90
3281;DHT22;1652;51.31805600;6.20194400;2023-11-19T05:14:59;11.90;99.90
3281;DHT22;1652;51.31805600;6.20194400;2023-11-19T05:17:27;11.90;99.90
3281;DHT22;1652;51.31805600;6.20194400;2023-11-19T05:19:54;12.00;99.90
3281;DHT22;1652;51.31805600;6.20194400;2023-11-19T05:22:21;11.90;99.90
3281;DHT22;1652;51.31805600;6.20194400;2023-11-19T05:24:48;11.90;99.90
3281;DHT22;1652;51.31805600;6.20194400;2023-11-19T05:27:16;12.00;99.90
3281;DHT22;1652;51.31805600;6.20194400;2023-11-19T05:29:43;11.90;99.90
3281;DHT22;1652;51.31805600;6.20194400;2023-11-19T05:32:10;11.90;99.90
3281;DHT22;1652;51.31805600;6.20194400;2023-11-19T05:34:38;12.00;99.90
3281;DHT22;1652;51.31805600;6.20194400;2023-11-19T05:37:18;12.00;99.90
3281;DHT22;1652;51.31805600;6.20194400;2023-11-19T05:39:45;12.00;99.90
3281;DHT22;1652;51.31805600;6.20194400;2023-11-19T05:42:12;12.00;99.90
3281;DHT22;1652;51.31805600;6.20194400;2023-11-19T05:44:39;12.00;99.90
3281;DHT22;1652;51.31805600;6.20194400;2023-11-19T05:47:07;11.90;99.90
3281;DHT22;1652;51.31805600;6.20194400;2023-11-19T05:49:34;11.90;99.90
3281;DHT22;1652;51.31805600;6.20194400;2023-11-19T05:52:01;11.90;99.90
3281;DHT22;1652;51.31805600;6.20194400;2023-11-19T05:54:30;11.80;99.90
3281;DHT22;1652;51.31805600;6.20194400;2023-11-19T05:56:58;11.80;99.90
3281;DHT22;1652;51.31805600;6.20194400;2023-11-19T05:59:25;11.80;99.90
3281;DHT22;1652;51.31805600;6.20194400;2023-11-19T06:01:52;11.70;99.90
3281;DHT22;1652;51.31805600;6.20194400;2023-11-19T06:04:19;11.70;99.90
3281;DHT22;1652;51.31805600;6.20194400;2023-11-19T06:06:47;11.70;99.90
3281;DHT22;1652;51.31805600;6.20194400;2023-11-19T06:09:13;11.70;99.90
3281;DHT22;1652;51.31805600;6.20194400;2023-11-19T06:11:41;11.70;99.90
3281;DHT22;1652;51.31805600;6.20194400;2023-11-19T06:14:08;11.70;99.90
3281;DHT22;1652;51.31805600;6.20194400;2023-11-19T06:16:35;11.60;99.90
3281;DHT22;1652;51.31805600;6.20194400;2023-11-19T06:19:04;11.60;99.90
3281;DHT22;1652;51.31805600;6.20194400;2023-11-19T06:21:31;11.50;99.90
3281;DHT22;1652;51.31805600;6.20194400;2023-11-19T06:23:58;11.40;99.90
3281;DHT22;1652;51.31805600;6.20194400;2023-11-19T06:26:26;11.40;99.90
3281;DHT22;1652;51.31805600;6.20194400;2023-11-19T06:28:53;11.40;99.90
3281;DHT22;1652;51.31805600;6.20194400;2023-11-19T06:31:20;11.40;99.90
3281;DHT22;1652;51.31805600;6.20194400;2023-11-19T06:33:48;11.30;99.90
3281;DHT22;1652;51.31805600;6.20194400;2023-11-19T06:36:15;11.30;99.90
3281;DHT22;1652;51.31805600;6.20194400;2023-11-19T06:38:45;11.30;99.90
3281;DHT22;1652;51.31805600;6.20194400;2023-11-19T06:41:11;11.20;99.90
3281;DHT22;1652;51.31805600;6.20194400;2023-11-19T06:43:38;11.20;99.90
3281;DHT22;1652;51.31805600;6.20194400;2023-11-19T06:46:15;11.10;99.90
3281;DHT22;1652;51.31805600;6.20194400;2023-11-19T06:48:42;11.00;99.90
3281;DHT22;1652;51.31805600;6.20194400;2023-11-19T06:51:11;11.10;99.90
3281;DHT22;1652;51.31805600;6.20194400;2023-11-19T06:53:38;11.00;99.90
3281;DHT22;1652;51.31805600;6.20194400;2023-11-19T06:56:22;11.00;99.90
3281;DHT22;1652;51.31805600;6.20194400;2023-11-19T06:58:49;11.00;99.90
3281;DHT22;1652;51.31805600;6.20194400;2023-11-19T07:01:17;10.90;99.90
3281;DHT22;1652;51.31805600;6.20194400;2023-11-19T07:03:45;11.00;99.90
3281;DHT22;1652;51.31805600;6.20194400;2023-11-19T07:06:16;10.90;99.90
3281;DHT22;1652;51.31805600;6.20194400;2023-11-19T07:08:43;10.90;99.90
3281;DHT22;1652;51.31805600;6.20194400;2023-11-19T07:11:14;10.90;99.90
3281;DHT22;1652;51.31805600;6.20194400;2023-11-19T07:13:43;10.90;99.90
3281;DHT22;1652;51.31805600;6.20194400;2023-11-19T07:16:10;10.90;99.90
3281;DHT22;1652;51.31805600;6.20194400;2023-11-19T07:18:37;10.90;99.90
3281;DHT22;1652;51.31805600;6.20194400;2023-11-19T07:21:05;10.90;99.90
3281;DHT22;1652;51.31805600;6.20194400;2023-11-19T07:23:32;10.80;99.90
3281;DHT22;1652;51.31805600;6.20194400;2023-11-19T07:26:01;10.90;99.90
3281;DHT22;1652;51.31805600;6.20194400;2023-11-19T07:28:28;10.90;99.90
3281;DHT22;1652;51.31805600;6.20194400;2023-11-19T07:30:55;10.90;99.90
3281;DHT22;1652;51.31805600;6.20194400;2023-11-19T07:33:25;10.90;99.90
3281;DHT22;1652;51.31805600;6.20194400;2023-11-19T07:35:52;11.00;99.90
3281;DHT22;1652;51.31805600;6.20194400;2023-11-19T07:38:19;11.00;99.90
3281;DHT22;1652;51.31805600;6.20194400;2023-11-19T07:40:46;11.00;99.90
3281;DHT22;1652;51.31805600;6.20194400;2023-11-19T07:43:17;11.10;99.90
3281;DHT22;1652;51.31805600;6.20194400;2023-11-19T07:45:44;11.10;99.90
3281;DHT22;1652;51.31805600;6.20194400;2023-11-19T07:48:12;11.20;99.90
3281;DHT22;1652;51.31805600;6.20194400;2023-11-19T07:50:40;11.20;99.90
3281;DHT22;1652;51.31805600;6.20194400;2023-11-19T07:53:10;11.30;99.90
3281;DHT22;1652;51.31805600;6.20194400;2023-11-19T07:55:39;11.30;99.90
3281;DHT22;1652;51.31805600;6.20194400;2023-11-19T07:58:08;11.40;99.90
3281;DHT22;1652;51.31805600;6.20194400;2023-11-19T08:00:35;11.50;99.90
3281;DHT22;1652;51.31805600;6.20194400;2023-11-19T08:05:27;11.70;99.90
3281;DHT22;1652;51.31805600;6.20194400;2023-11-19T08:07:54;11.70;99.90
3281;DHT22;1652;51.31805600;6.20194400;2023-11-19T08:10:21;11.70;99.90
3281;DHT22;1652;51.31805600;6.20194400;2023-11-19T08:12:48;11.80;99.90
3281;DHT22;1652;51.31805600;6.20194400;2023-11-19T08:15:15;11.90;99.90
3281;DHT22;1652;51.31805600;6.20194400;2023-11-19T08:17:58;12.00;99.90
3281;DHT22;1652;51.31805600;6.20194400;2023-11-19T08:20:25;12.00;99.90
3281;DHT22;1652;51.31805600;6.20194400;2023-11-19T08:22:52;11.90;99.90
3281;DHT22;1652;51.31805600;6.20194400;2023-11-19T08:25:19;11.90;99.90
3281;DHT22;1652;51.31805600;6.20194400;2023-11-19T08:27:46;12.00;99.90
3281;DHT22;1652;51.31805600;6.20194400;2023-11-19T08:30:13;12.00;99.90
3281;DHT22;1652;51.31805600;6.20194400;2023-11-19T08:32:40;12.10;99.90
3281;DHT22;1652;51.31805600;6.20194400;2023-11-19T08:35:08;12.10;99.90
3281;DHT22;1652;51.31805600;6.20194400;2023-11-19T08:37:35;12.10;99.90
3281;DHT22;1652;51.31805600;6.20194400;2023-11-19T08:40:03;12.20;99.90
3281;DHT22;1652;51.31805600;6.20194400;2023-11-19T08:42:31;12.20;99.90
3281;DHT22;1652;51.31805600;6.20194400;2023-11-19T08:44:58;12.30;99.90
3281;DHT22;1652;51.31805600;6.20194400;2023-11-19T08:47:25;12.30;99.90
3281;DHT22;1652;51.31805600;6.20194400;2023-11-19T08:49:52;12.40;99.90
3281;DHT22;1652;51.31805600;6.20194400;2023-11-19T08:52:22;12.40;99.90
3281;DHT22;1652;51.31805600;6.20194400;2023-11-19T08:54:49;12.50;99.90
3281;DHT22;1652;51.31805600;6.20194400;2023-11-19T08:57:16;12.60;99.90
3281;DHT22;1652;51.31805600;6.20194400;2023-11-19T08:59:43;12.80;99.90
3281;DHT22;1652;51.31805600;6.20194400;2023-11-19T09:02:13;12.90;99.90
3281;DHT22;1652;51.31805600;6.20194400;2023-11-19T09:04:40;13.10;99.90
3281;DHT22;1652;51.31805600;6.20194400;2023-11-19T09:07:08;13.10;99.90
3281;DHT22;1652;51.31805600;6.20194400;2023-11-19T09:09:37;13.20;99.90
3281;DHT22;1652;51.31805600;6.20194400;2023-11-19T09:12:05;13.20;99.90
3281;DHT22;1652;51.31805600;6.20194400;2023-11-19T09:14:32;13.30;99.90
3281;DHT22;1652;51.31805600;6.20194400;2023-11-19T09:16:59;13.30;99.90
3281;DHT22;1652;51.31805600;6.20194400;2023-11-19T09:19:26;13.40;99.90
3281;DHT22;1652;51.31805600;6.20194400;2023-11-19T09:21:53;13.40;99.90
3281;DHT22;1652;51.31805600;6.20194400;2023-11-19T09:24:20;13.40;99.90
3281;DHT22;1652;51.31805600;6.20194400;2023-11-19T09:26:47;13.40;99.90
3281;DHT22;1652;51.31805600;6.20194400;2023-11-19T09:29:14;13.40;99.90
3281;DHT22;1652;51.31805600;6.20194400;2023-11-19T09:31:42;13.40;99.90
3281;DHT22;1652;51.31805600;6.20194400;2023-11-19T09:34:09;13.40;99.90
3281;DHT22;1652;51.31805600;6.20194400;2023-11-19T09:36:36;13.50;99.90
3281;DHT22;1652;51.31805600;6.20194400;2023-11-19T09:39:03;13.60;99.90
3281;DHT22;1652;51.31805600;6.20194400;2023-11-19T09:41:31;13.60;99.90
3281;DHT22;1652;51.31805600;6.20194400;2023-11-19T09:43:59;13.50;99.90
3281;DHT22;1652;51.31805600;6.20194400;2023-11-19T09:46:26;13.50;99.90
3281;DHT22;1652;51.31805600;6.20194400;2023-11-19T09:48:53;13.40;99.90
3281;DHT22;1652;51.31805600;6.20194400;2023-11-19T09:51:21;13.40;99.90
3281;DHT22;1652;51.31805600;6.20194400;2023-11-19T09:53:49;13.50;99.90
3281;DHT22;1652;51.31805600;6.20194400;2023-11-19T09:56:16;13.70;99.90
3281;DHT22;1652;51.31805600;6.20194400;2023-11-19T09:58:44;13.70;99.90
3281;DHT22;1652;51.31805600;6.20194400;2023-11-19T10:01:11;13.60;99.90
3281;DHT22;1652;51.31805600;6.20194400;2023-11-19T10:03:42;13.60;99.90
3281;DHT22;1652;51.31805600;6.20194400;2023-11-19T10:06:11;13.40;99.90
3281;DHT22;1652;51.31805600;6.20194400;2023-11-19T10:08:38;13.40;99.90
3281;DHT22;1652;51.31805600;6.20194400;2023-11-19T10:11:09;13.20;99.90
3281;DHT22;1652;51.31805600;6.20194400;2023-11-19T10:13:40;13.20;99.90
3281;DHT22;1652;51.31805600;6.20194400;2023-11-19T10:16:13;13.30;99.90
3281;DHT22;1652;51.31805600;6.20194400;2023-11-19T10:18:48;13.30;99.90
3281;DHT22;1652;51.31805600;6.20194400;2023-11-19T10:21:20;13.40;99.90
3281;DHT22;1652;51.31805600;6.20194400;2023-11-19T10:23:51;13.50;99.90
3281;DHT22;1652;51.31805600;6.20194400;2023-11-19T10:26:19;13.50;99.90
3281;DHT22;1652;51.31805600;6.20194400;2023-11-19T10:28:47;13.60;99.90
3281;DHT22;1652;51.31805600;6.20194400;2023-11-19T10:31:15;13.60;99.90
3281;DHT22;1652;51.31805600;6.20194400;2023-11-19T10:33:42;13.60;99.90
3281;DHT22;1652;51.31805600;6.20194400;2023-11-19T10:36:12;13.80;99.90
3281;DHT22;1652;51.31805600;6.20194400;2023-11-19T10:38:40;13.80;99.90
3281;DHT22;1652;51.31805600;6.20194400;2023-11-19T10:41:07;13.80;99.90
3281;DHT22;1652;51.31805600;6.20194400;2023-11-19T10:43:44;13.80;99.90
3281;DHT22;1652;51.31805600;6.20194400;2023-11-19T10:46:12;13.80;99.90
3281;DHT22;1652;51.31805600;6.20194400;2023-11-19T10:48:40;13.70;99.90
3281;DHT22;1652;51.31805600;6.20194400;2023-11-19T10:51:08;13.80;99.90
3281;DHT22;1652;51.31805600;6.20194400;2023-11-19T10:53:38;13.70;99.90
3281;DHT22;1652;51.31805600;6.20194400;2023-11-19T10:56:11;13.70;99.90
3281;DHT22;1652;51.31805600;6.20194400;2023-11-19T10:58:41;13.70;99.90
3281;DHT22;1652;51.31805600;6.20194400;2023-11-19T11:01:19;13.70;99.90
3281;DHT22;1652;51.31805600;6.20194400;2023-11-19T11:03:47;13.70;99.90
3281;DHT22;1652;51.31805600;6.20194400;2023-11-19T11:06:18;13.60;99.90
3281;DHT22;1652;51.31805600;6.20194400;2023-11-19T11:08:46;13.50;99.90
3281;DHT22;1652;51.31805600;6.20194400;2023-11-19T11:11:15;13.60;99.90
3281;DHT22;1652;51.31805600;6.20194400;2023-11-19T11:13:44;13.70;99.90
3281;DHT22;1652;51.31805600;6.20194400;2023-11-19T11:16:12;13.70;99.90
3281;DHT22;1652;51.31805600;6.20194400;2023-11-19T11:18:40;13.80;99.90
3281;DHT22;1652;51.31805600;6.20194400;2023-11-19T11:21:11;13.80;99.90
3281;DHT22;1652;51.31805600;6.20194400;2023-11-19T11:23:45;13.90;99.90
3281;DHT22;1652;51.31805600;6.20194400;2023-11-19T11:29:56;14.00;99.90
3281;DHT22;1652;51.31805600;6.20194400;2023-11-19T11:32:51;14.10;99.90
3281;DHT22;1652;51.31805600;6.20194400;2023-11-19T11:35:47;14.20;99.90
3281;DHT22;1652;51.31805600;6.20194400;2023-11-19T11:38:21;14.30;99.90
3281;DHT22;1652;51.31805600;6.20194400;2023-11-19T11:41:14;14.40;99.90
3281;DHT22;1652;51.31805600;6.20194400;2023-11-19T11:43:54;14.60;99.90
3281;DHT22;1652;51.31805600;6.20194400;2023-11-19T11:49:04;14.50;99.90
3281;DHT22;1652;51.31805600;6.20194400;2023-11-19T11:57:08;14.30;99.90
3281;DHT22;1652;51.31805600;6.20194400;2023-11-19T12:02:10;14.20;99.90
3281;DHT22;1652;51.31805600;6.20194400;2023-11-19T12:04:39;14.20;99.90
3281;DHT22;1652;51.31805600;6.20194400;2023-11-19T12:07:21;14.10;99.90
3281;DHT22;1652;51.31805600;6.20194400;2023-11-19T12:09:56;14.10;99.90
3281;DHT22;1652;51.31805600;6.20194400;2023-11-19T12:12:34;14.00;99.90
3281;DHT22;1652;51.31805600;6.20194400;2023-11-19T12:17:40;13.70;99.90
3281;DHT22;1652;51.31805600;6.20194400;2023-11-19T12:20:08;13.40;99.90
3281;DHT22;1652;51.31805600;6.20194400;2023-11-19T12:22:37;13.20;99.90
3281;DHT22;1652;51.31805600;6.20194400;2023-11-19T12:25:10;12.90;99.90
3281;DHT22;1652;51.31805600;6.20194400;2023-11-19T12:27:40;12.60;99.90
3281;DHT22;1652;51.31805600;6.20194400;2023-11-19T12:30:08;12.50;99.90
3281;DHT22;1652;51.31805600;6.20194400;2023-11-19T12:32:41;12.60;99.90
3281;DHT22;1652;51.31805600;6.20194400;2023-11-19T12:35:09;12.80;99.90
3281;DHT22;1652;51.31805600;6.20194400;2023-11-19T12:37:44;12.80;99.90
3281;DHT22;1652;51.31805600;6.20194400;2023-11-19T12:40:16;12.70;99.90
3281;DHT22;1652;51.31805600;6.20194400;2023-11-19T12:42:45;12.60;99.90
3281;DHT22;1652;51.31805600;6.20194400;2023-11-19T12:45:12;12.70;99.90
3281;DHT22;1652;51.31805600;6.20194400;2023-11-19T12:47:40;12.70;99.90
3281;DHT22;1652;51.31805600;6.20194400;2023-11-19T12:50:08;12.80;99.90
3281;DHT22;1652;51.31805600;6.20194400;2023-11-19T12:52:36;12.90;99.90
3281;DHT22;1652;51.31805600;6.20194400;2023-11-19T12:55:05;13.00;99.90
3281;DHT22;1652;51.31805600;6.20194400;2023-11-19T12:57:40;13.00;99.90
3281;DHT22;1652;51.31805600;6.20194400;2023-11-19T13:00:18;13.00;99.90
3281;DHT22;1652;51.31805600;6.20194400;2023-11-19T13:02:50;13.20;99.90
3281;DHT22;1652;51.31805600;6.20194400;2023-11-19T13:08:00;13.40;99.90
3281;DHT22;1652;51.31805600;6.20194400;2023-11-19T13:10:28;13.40;99.90
3281;DHT22;1652;51.31805600;6.20194400;2023-11-19T13:13:06;13.40;99.90
3281;DHT22;1652;51.31805600;6.20194400;2023-11-19T13:15:36;13.40;99.90
3281;DHT22;1652;51.31805600;6.20194400;2023-11-19T13:18:03;13.40;99.90
3281;DHT22;1652;51.31805600;6.20194400;2023-11-19T13:20:30;13.30;99.90
3281;DHT22;1652;51.31805600;6.20194400;2023-11-19T13:23:00;13.40;99.90
3281;DHT22;1652;51.31805600;6.20194400;2023-11-19T13:25:27;13.30;99.90
3281;DHT22;1652;51.31805600;6.20194400;2023-11-19T13:27:55;13.10;99.90
3281;DHT22;1652;51.31805600;6.20194400;2023-11-19T13:30:23;13.00;99.90
3281;DHT22;1652;51.31805600;6.20194400;2023-11-19T13:32:53;13.00;99.90
3281;DHT22;1652;51.31805600;6.20194400;2023-11-19T13:35:24;12.90;99.90
3281;DHT22;1652;51.31805600;6.20194400;2023-11-19T13:37:51;12.90;99.90
3281;DHT22;1652;51.31805600;6.20194400;2023-11-19T13:40:18;12.70;99.90
3281;DHT22;1652;51.31805600;6.20194400;2023-11-19T13:42:46;12.60;99.90
3281;DHT22;1652;51.31805600;6.20194400;2023-11-19T13:45:14;12.40;99.90
3281;DHT22;1652;51.31805600;6.20194400;2023-11-19T13:47:43;12.30;99.90
3281;DHT22;1652;51.31805600;6.20194400;2023-11-19T13:50:12;12.30;99.90
3281;DHT22;1652;51.31805600;6.20194400;2023-11-19T13:52:41;12.30;99.90
3281;DHT22;1652;51.31805600;6.20194400;2023-11-19T13:55:09;12.40;99.90
3281;DHT22;1652;51.31805600;6.20194400;2023-11-19T13:57:38;12.40;99.90
3281;DHT22;1652;51.31805600;6.20194400;2023-11-19T14:00:07;12.30;99.90
3281;DHT22;1652;51.31805600;6.20194400;2023-11-19T14:02:40;12.30;99.90
3281;DHT22;1652;51.31805600;6.20194400;2023-11-19T14:05:11;12.20;99.90
3281;DHT22;1652;51.31805600;6.20194400;2023-11-19T14:07:39;12.10;99.90
3281;DHT22;1652;51.31805600;6.20194400;2023-11-19T14:10:07;12.10;99.90
3281;DHT22;1652;51.31805600;6.20194400;2023-11-19T14:12:39;12.00;99.90
3281;DHT22;1652;51.31805600;6.20194400;2023-11-19T14:15:08;11.90;99.90
3281;DHT22;1652;51.31805600;6.20194400;2023-11-19T14:17:39;11.90;99.90